Time;durP1;ratioP1;P1;durP2;ratioP2;P2;SDS_P1;SDS_P2;PMS_P1;PMS_P2;Temp;Humidity;BMP_temperature;BMP_pressure;BME280_temperature;BME280_humidity;BME280_pressure;Samples;Min_cycle;Max_cycle;Signal;HPM_P1;HPM_P2
2022/11/30 00:01:22;;;;;;;43.65;22.20;;;6.20;99.90;;;;;;4929905;29;20031;-76
2022/11/30 00:03:51;;;;;;;42.83;22.08;;;6.20;99.90;;;;;;4931737;29;20023;-76
2022/11/30 00:06:22;;;;;;;42.83;22.35;;;6.20;99.90;;;;;;4932255;29;20032;-77
2022/11/30 00:08:59;;;;;;;43.28;22.38;;;6.20;99.90;;;;;;4926567;29;20118;-75
2022/11/30 00:11:28;;;;;;;45.42;23.40;;;6.20;99.90;;;;;;4929433;29;20168;-76
2022/11/30 00:13:54;;;;;;;45.08;23.40;;;6.20;99.90;;;;;;4931274;29;20037;-75
2022/11/30 00:16:20;;;;;;;40.05;20.90;;;6.20;99.90;;;;;;4931146;29;20039;-75
2022/11/30 00:18:46;;;;;;;40.65;21.55;;;6.20;99.90;;;;;;4931524;29;20035;-76
2022/11/30 00:21:13;;;;;;;39.03;20.17;;;6.20;99.90;;;;;;4929376;29;20036;-76
2022/11/30 00:23:41;;;;;;;43.63;22.33;;;6.10;99.90;;;;;;4932781;29;20028;-76
2022/11/30 00:26:09;;;;;;;40.10;21.20;;;6.20;99.90;;;;;;4930902;29;20032;-76
2022/11/30 00:28:36;;;;;;;45.53;22.02;;;6.10;99.90;;;;;;4936229;29;20031;-76
2022/11/30 00:31:09;;;;;;;39.63;20.42;;;6.10;99.90;;;;;;4931467;29;20485;-76
2022/11/30 00:33:43;;;;;;;43.40;21.75;;;6.10;99.90;;;;;;4931969;29;20382;-75
2022/11/30 00:36:14;;;;;;;42.20;20.85;;;6.10;99.90;;;;;;4932655;29;20067;-76
2022/11/30 00:38:40;;;;;;;38.78;20.00;;;6.10;99.90;;;;;;4933417;29;20039;-75
2022/11/30 00:41:06;;;;;;;36.67;19.15;;;6.10;99.90;;;;;;4932189;28;20035;-75
2022/11/30 00:43:32;;;;;;;39.08;19.85;;;6.10;99.90;;;;;;4946047;28;20390;-75
2022/11/30 00:46:00;;;;;;;34.85;18.48;;;6.10;99.90;;;;;;4927870;28;20035;-75
2022/11/30 00:48:29;;;;;;;38.65;20.35;;;6.10;99.90;;;;;;4930207;29;20071;-75
2022/11/30 00:50:54;;;;;;;38.90;20.27;;;6.10;99.90;;;;;;4933375;29;20039;-75
2022/11/30 00:53:20;;;;;;;40.67;19.58;;;6.10;99.90;;;;;;4935184;29;20035;-76
2022/11/30 00:55:46;;;;;;;39.55;19.00;;;6.10;99.90;;;;;;4933727;28;20028;-75
2022/11/30 00:58:13;;;;;;;36.22;19.52;;;6.10;99.90;;;;;;4933363;29;20024;-76
2022/11/30 01:00:41;;;;;;;38.83;21.08;;;6.10;99.90;;;;;;4930870;29;20512;-76
2022/11/30 01:03:07;;;;;;;44.13;22.05;;;6.10;99.90;;;;;;4930124;29;20494;-76
2022/11/30 01:05:35;;;;;;;43.42;22.08;;;6.10;99.90;;;;;;4935089;29;20116;-76
2022/11/30 01:08:19;;;;;;;41.97;20.50;;;6.00;99.90;;;;;;4952606;28;20036;-77
2022/11/30 01:10:48;;;;;;;34.67;18.95;;;6.00;99.90;;;;;;4933199;28;20106;-75
2022/11/30 01:13:14;;;;;;;33.15;17.55;;;6.10;99.90;;;;;;4935278;29;20031;-75
2022/11/30 01:15:42;;;;;;;38.25;18.65;;;6.00;99.90;;;;;;4938592;29;20312;-75
2022/11/30 01:18:11;;;;;;;36.65;19.33;;;6.00;99.90;;;;;;4942730;29;20110;-75
2022/11/30 01:20:45;;;;;;;30.63;16.35;;;6.00;99.90;;;;;;4936730;29;20024;-75
2022/11/30 01:23:11;;;;;;;28.52;15.25;;;6.10;99.90;;;;;;4936220;29;20035;-76
2022/11/30 01:25:38;;;;;;;31.30;16.05;;;6.00;99.90;;;;;;4944270;29;20031;-75
2022/11/30 01:28:10;;;;;;;30.55;16.52;;;6.10;99.90;;;;;;4940344;29;20719;-75
2022/11/30 01:30:38;;;;;;;28.67;14.93;;;6.10;99.90;;;;;;4937662;29;20148;-76
2022/11/30 01:33:06;;;;;;;25.80;14.18;;;6.10;99.90;;;;;;4933947;29;20036;-76
2022/11/30 01:35:35;;;;;;;22.00;12.43;;;6.10;99.90;;;;;;4936440;29;20027;-76
2022/11/30 01:38:13;;;;;;;21.25;11.90;;;6.00;99.90;;;;;;4936555;29;20023;-76
2022/11/30 01:40:38;;;;;;;20.02;11.52;;;6.00;99.90;;;;;;4933766;29;20451;-75
2022/11/30 01:43:10;;;;;;;17.85;10.23;;;6.00;99.90;;;;;;4935830;29;20115;-76
2022/11/30 01:45:38;;;;;;;16.10;9.60;;;6.00;99.90;;;;;;4931035;29;20020;-76
2022/11/30 01:48:07;;;;;;;17.52;9.27;;;6.00;99.90;;;;;;4932827;29;20035;-76
2022/11/30 01:50:36;;;;;;;16.85;10.07;;;6.00;99.90;;;;;;4934657;29;20019;-76
2022/11/30 01:53:04;;;;;;;18.55;9.82;;;6.00;99.90;;;;;;4948140;28;20042;-76
2022/11/30 01:55:41;;;;;;;17.65;10.18;;;6.00;99.90;;;;;;4935740;29;20028;-76
2022/11/30 01:58:17;;;;;;;17.05;9.23;;;5.90;99.90;;;;;;4936461;29;20020;-76
2022/11/30 02:00:47;;;;;;;16.98;8.93;;;5.90;99.90;;;;;;4932750;29;20468;-76
2022/11/30 02:03:35;;;;;;;18.50;9.85;;;5.90;99.90;;;;;;4930515;29;20561;-76
2022/11/30 02:06:01;;;;;;;18.30;9.65;;;5.90;99.90;;;;;;4932513;29;20048;-76
2022/11/30 02:08:43;;;;;;;16.73;9.32;;;6.00;99.90;;;;;;4934219;28;20034;-76
2022/11/30 02:11:14;;;;;;;18.40;9.50;;;6.00;99.90;;;;;;4932178;29;20043;-76
2022/11/30 02:14:04;;;;;;;18.55;10.57;;;6.00;99.90;;;;;;4929661;29;20388;-76
2022/11/30 02:17:00;;;;;;;17.35;9.80;;;6.00;99.90;;;;;;4932688;29;20043;-74
2022/11/30 02:20:11;;;;;;;16.67;9.95;;;6.00;99.90;;;;;;4927582;29;20023;-76
2022/11/30 02:22:51;;;;;;;16.15;9.40;;;6.00;99.90;;;;;;4933713;29;20035;-75
2022/11/30 02:25:36;;;;;;;15.32;9.02;;;6.00;99.90;;;;;;4934270;29;20083;-75
2022/11/30 02:28:19;;;;;;;16.33;10.02;;;6.00;99.90;;;;;;4933588;29;20389;-76
2022/11/30 02:30:49;;;;;;;17.42;9.52;;;6.00;99.90;;;;;;4932479;28;20510;-76
2022/11/30 02:33:18;;;;;;;16.63;9.18;;;6.00;99.90;;;;;;4937740;29;20520;-76
2022/11/30 02:35:50;;;;;;;16.90;9.63;;;6.00;99.90;;;;;;4928977;29;20027;-75
2022/11/30 02:38:21;;;;;;;16.48;9.48;;;6.00;99.90;;;;;;4930557;29;20093;-75
2022/11/30 02:40:50;;;;;;;16.13;9.18;;;6.00;99.90;;;;;;4936488;29;20042;-75
2022/11/30 02:43:18;;;;;;;16.25;9.13;;;6.00;99.90;;;;;;4936152;29;20419;-75
2022/11/30 02:45:54;;;;;;;14.35;8.43;;;6.00;99.90;;;;;;4931231;29;20020;-75
2022/11/30 02:48:46;;;;;;;17.58;9.45;;;6.00;99.90;;;;;;4929032;29;20024;-77
2022/11/30 02:51:17;;;;;;;15.15;8.77;;;6.00;99.90;;;;;;4930231;29;20035;-76
2022/11/30 02:53:46;;;;;;;17.58;10.00;;;6.00;99.90;;;;;;4933674;29;20027;-75
2022/11/30 02:56:12;;;;;;;18.33;9.35;;;6.00;99.90;;;;;;4935074;29;20023;-76
2022/11/30 02:58:38;;;;;;;16.25;10.23;;;6.00;99.90;;;;;;4935233;29;20036;-76
2022/11/30 03:01:04;;;;;;;15.82;9.30;;;6.00;99.90;;;;;;4925234;29;20043;-77
2022/11/30 03:03:30;;;;;;;17.15;9.43;;;6.00;99.90;;;;;;4935179;29;20478;-76
2022/11/30 03:05:58;;;;;;;15.75;9.00;;;6.00;99.90;;;;;;4941450;29;20039;-77
2022/11/30 03:08:24;;;;;;;15.57;9.18;;;6.00;99.90;;;;;;4934989;29;20101;-77
2022/11/30 03:10:56;;;;;;;15.98;9.50;;;6.00;99.90;;;;;;4933705;29;20065;-77
2022/11/30 03:13:22;;;;;;;18.38;10.05;;;6.00;99.90;;;;;;4937295;29;20040;-76
2022/11/30 03:15:47;;;;;;;19.00;10.15;;;6.00;99.90;;;;;;4934728;29;20035;-75
2022/11/30 03:18:16;;;;;;;18.33;10.73;;;6.00;99.90;;;;;;4933508;29;20078;-76
2022/11/30 03:20:42;;;;;;;17.13;9.55;;;6.00;99.90;;;;;;4932380;29;20051;-76
2022/11/30 03:23:10;;;;;;;16.15;9.65;;;6.00;99.90;;;;;;4929260;29;20036;-76
2022/11/30 03:25:45;;;;;;;18.40;10.55;;;5.90;99.90;;;;;;4936872;29;20543;-76
2022/11/30 03:28:20;;;;;;;18.63;10.57;;;6.00;99.90;;;;;;4931112;29;20040;-77
2022/11/30 03:30:49;;;;;;;18.80;10.23;;;6.00;99.90;;;;;;4932245;29;20031;-76
2022/11/30 03:33:14;;;;;;;18.20;10.27;;;6.00;99.90;;;;;;4930079;29;20067;-77
2022/11/30 03:35:43;;;;;;;18.50;10.57;;;6.00;99.90;;;;;;4931114;29;20086;-75
2022/11/30 03:38:09;;;;;;;20.42;11.25;;;6.00;99.90;;;;;;4933143;29;20042;-76
2022/11/30 03:40:44;;;;;;;19.40;10.68;;;6.00;99.90;;;;;;4933131;29;20024;-76
2022/11/30 03:43:15;;;;;;;17.95;10.05;;;5.90;99.90;;;;;;4931788;29;20307;-76
2022/11/30 03:45:44;;;;;;;17.90;10.18;;;5.90;99.90;;;;;;4930146;29;20036;-76
2022/11/30 03:48:09;;;;;;;19.65;10.50;;;5.90;99.90;;;;;;4935374;29;20035;-76
2022/11/30 03:50:38;;;;;;;18.08;9.90;;;5.90;99.90;;;;;;4935902;28;20035;-76
2022/11/30 03:53:12;;;;;;;19.50;10.20;;;5.90;99.90;;;;;;4935254;29;20175;-77
2022/11/30 03:55:41;;;;;;;19.33;10.70;;;5.90;99.90;;;;;;4937652;29;20039;-76
2022/11/30 03:58:19;;;;;;;17.90;10.02;;;5.90;99.90;;;;;;4931893;29;20047;-77
2022/11/30 04:00:45;;;;;;;19.02;10.00;;;5.90;99.90;;;;;;4931347;29;20039;-75
2022/11/30 04:03:14;;;;;;;24.50;11.77;;;5.90;99.90;;;;;;4932197;29;20028;-76
2022/11/30 04:05:46;;;;;;;20.80;11.15;;;5.90;99.90;;;;;;4928410;29;20121;-75
2022/11/30 04:08:18;;;;;;;19.80;11.48;;;5.90;99.90;;;;;;4934829;29;20042;-76
2022/11/30 04:13:14;;;;;;;18.92;10.48;;;5.90;99.90;;;;;;4977740;28;20057;-78
2022/11/30 04:15:40;;;;;;;21.25;10.52;;;5.90;99.90;;;;;;4978552;28;20406;-80
2022/11/30 04:18:13;;;;;;;18.30;9.90;;;5.90;99.90;;;;;;4973466;28;20032;-79
2022/11/30 04:20:38;;;;;;;18.75;9.98;;;5.90;99.90;;;;;;4966293;28;20074;-76
2022/11/30 04:23:13;;;;;;;19.13;10.10;;;5.90;99.90;;;;;;4954125;28;20693;-78
2022/11/30 04:25:46;;;;;;;18.02;9.95;;;5.90;99.90;;;;;;4955917;28;20110;-78
2022/11/30 04:28:16;;;;;;;19.23;10.05;;;5.90;99.90;;;;;;4957950;28;20033;-78
2022/11/30 04:30:42;;;;;;;17.92;9.95;;;5.90;99.90;;;;;;4956135;28;20596;-78
2022/11/30 04:33:08;;;;;;;19.50;10.25;;;5.90;99.90;;;;;;4963391;28;20031;-81
2022/11/30 04:35:40;;;;;;;22.70;10.45;;;5.90;99.90;;;;;;4960351;28;20114;-82
2022/11/30 04:38:05;;;;;;;21.00;11.35;;;5.90;99.90;;;;;;4959397;28;20047;-79
2022/11/30 04:40:41;;;;;;;19.35;10.77;;;6.00;99.90;;;;;;4960545;28;20042;-79
2022/11/30 04:43:07;;;;;;;21.95;11.85;;;6.00;99.90;;;;;;4956593;28;20061;-79
2022/11/30 04:45:36;;;;;;;20.55;11.48;;;6.00;99.90;;;;;;4960981;28;20024;-79
2022/11/30 04:48:02;;;;;;;18.08;10.52;;;6.00;99.90;;;;;;4958586;28;20583;-79
2022/11/30 04:50:28;;;;;;;22.30;11.95;;;6.00;99.90;;;;;;4958991;28;20506;-79
2022/11/30 04:52:57;;;;;;;20.10;10.75;;;5.90;99.90;;;;;;4959022;28;20027;-79
2022/11/30 04:55:23;;;;;;;22.65;11.35;;;5.90;99.90;;;;;;4961766;28;20039;-79
2022/11/30 04:57:49;;;;;;;22.65;11.63;;;5.90;99.90;;;;;;4959942;28;20019;-76
2022/11/30 05:00:16;;;;;;;20.48;11.98;;;5.90;99.90;;;;;;4957974;28;20409;-78
2022/11/30 05:02:42;;;;;;;21.05;10.85;;;5.90;99.90;;;;;;4966337;28;20028;-79
2022/11/30 05:05:08;;;;;;;19.25;11.35;;;5.90;99.90;;;;;;4960424;28;20086;-79
2022/11/30 05:07:34;;;;;;;17.70;10.35;;;5.90;99.90;;;;;;4960684;28;20051;-79
2022/11/30 05:10:12;;;;;;;22.08;10.60;;;5.90;99.90;;;;;;4959492;28;20043;-79
2022/11/30 05:12:50;;;;;;;23.48;11.07;;;5.90;99.90;;;;;;4960955;28;20030;-78
2022/11/30 05:15:16;;;;;;;22.30;10.95;;;5.90;99.90;;;;;;4960181;28;20031;-79
2022/11/30 05:17:45;;;;;;;17.58;10.65;;;5.90;99.90;;;;;;4960611;28;20030;-79
2022/11/30 05:20:17;;;;;;;16.35;9.68;;;5.90;99.90;;;;;;4965640;28;20039;-80
2022/11/30 05:22:42;;;;;;;18.40;10.95;;;5.90;99.90;;;;;;4960488;28;20396;-80
2022/11/30 05:25:14;;;;;;;21.33;11.88;;;5.90;99.90;;;;;;4961809;28;20032;-80
2022/11/30 05:27:43;;;;;;;19.13;10.55;;;5.90;99.90;;;;;;4960958;28;20027;-78
2022/11/30 05:30:14;;;;;;;20.38;11.70;;;5.90;99.90;;;;;;4964945;28;20080;-79
2022/11/30 05:32:40;;;;;;;20.05;10.93;;;5.90;99.90;;;;;;4958613;28;20031;-79
2022/11/30 05:35:06;;;;;;;20.05;10.38;;;5.90;99.90;;;;;;4963310;28;20464;-79
2022/11/30 05:37:32;;;;;;;18.45;10.65;;;5.90;99.90;;;;;;4959212;28;20105;-80
2022/11/30 05:40:00;;;;;;;19.25;10.77;;;6.00;99.90;;;;;;4961832;28;20030;-79
2022/11/30 05:42:27;;;;;;;17.25;9.82;;;5.90;99.90;;;;;;4955810;28;20154;-79
2022/11/30 05:44:52;;;;;;;16.92;9.88;;;5.90;99.90;;;;;;4958190;28;20329;-79
2022/11/30 05:47:24;;;;;;;17.75;9.90;;;5.90;99.90;;;;;;4966426;28;20082;-80
2022/11/30 05:49:50;;;;;;;16.08;9.60;;;6.00;99.90;;;;;;4966520;28;20035;-79
2022/11/30 05:52:18;;;;;;;18.95;9.30;;;5.90;99.90;;;;;;4953960;28;20030;-79
2022/11/30 05:54:44;;;;;;;22.17;10.02;;;6.00;99.90;;;;;;4955499;28;20066;-79
2022/11/30 05:57:09;;;;;;;15.63;9.43;;;6.00;99.90;;;;;;4956155;28;20563;-79
2022/11/30 05:59:35;;;;;;;15.88;9.48;;;5.90;99.90;;;;;;4952718;28;20063;-78
2022/11/30 06:02:01;;;;;;;16.75;9.30;;;5.90;99.90;;;;;;4955847;28;20043;-79
2022/11/30 06:04:26;;;;;;;16.52;9.57;;;5.90;99.90;;;;;;4960347;28;20043;-79
2022/11/30 06:06:54;;;;;;;15.20;8.75;;;5.90;99.90;;;;;;4952624;28;20030;-80
2022/11/30 06:09:20;;;;;;;15.48;9.00;;;5.90;99.90;;;;;;4956570;28;21037;-78
2022/11/30 06:11:49;;;;;;;16.45;9.35;;;5.90;99.90;;;;;;4956654;28;20102;-80
2022/11/30 06:14:18;;;;;;;19.75;10.77;;;5.90;99.90;;;;;;4954741;28;20035;-79
2022/11/30 06:16:46;;;;;;;15.20;9.35;;;5.90;99.90;;;;;;4960705;28;20130;-78
2022/11/30 06:19:14;;;;;;;17.58;10.30;;;5.90;99.90;;;;;;4961922;28;20046;-78
2022/11/30 06:21:40;;;;;;;21.02;10.90;;;5.90;99.90;;;;;;4960972;28;20027;-80
2022/11/30 06:24:12;;;;;;;18.75;10.77;;;5.90;99.90;;;;;;4958889;28;20098;-80
2022/11/30 06:26:38;;;;;;;16.35;9.77;;;5.90;99.90;;;;;;4954668;28;20656;-79
2022/11/30 06:29:08;;;;;;;16.05;9.98;;;5.80;99.90;;;;;;4958546;28;20034;-82
2022/11/30 06:31:36;;;;;;;19.67;9.88;;;5.80;99.90;;;;;;4955839;28;20118;-83
2022/11/30 06:34:05;;;;;;;17.45;9.25;;;5.80;99.90;;;;;;4955916;28;20031;-81
2022/11/30 06:36:37;;;;;;;16.02;9.35;;;5.80;99.90;;;;;;4955877;28;20115;-81
2022/11/30 06:39:07;;;;;;;17.77;8.93;;;5.80;99.90;;;;;;4955465;28;20153;-81
2022/11/30 06:41:36;;;;;;;15.95;8.95;;;5.80;99.90;;;;;;4954706;28;20050;-81
2022/11/30 06:44:06;;;;;;;16.33;9.15;;;5.70;99.90;;;;;;4954188;28;20031;-81
2022/11/30 06:46:32;;;;;;;16.88;10.25;;;5.80;99.90;;;;;;4950618;28;20035;-68
2022/11/30 06:49:13;;;;;;;16.75;9.23;;;5.70;99.90;;;;;;4946294;28;20487;-70
2022/11/30 06:51:47;;;;;;;16.58;9.13;;;5.70;99.90;;;;;;4951496;28;20554;-76
2022/11/30 06:54:16;;;;;;;16.80;9.52;;;5.70;99.90;;;;;;4960188;28;20404;-77
2022/11/30 06:56:41;;;;;;;17.65;9.32;;;5.70;99.90;;;;;;4958093;28;20543;-80
2022/11/30 06:59:07;;;;;;;17.33;8.52;;;5.80;99.90;;;;;;4953411;28;20054;-80
2022/11/30 07:01:33;;;;;;;15.27;8.43;;;5.80;99.90;;;;;;4950367;28;20027;-80
2022/11/30 07:04:04;;;;;;;14.13;8.73;;;5.80;99.90;;;;;;4956182;28;20027;-79
2022/11/30 07:06:30;;;;;;;18.08;8.98;;;5.80;99.90;;;;;;4955113;28;20031;-80
2022/11/30 07:08:59;;;;;;;17.50;9.15;;;5.90;99.90;;;;;;4955778;28;20023;-80
2022/11/30 07:11:36;;;;;;;15.52;8.32;;;5.90;99.90;;;;;;4953180;28;20081;-81
2022/11/30 07:14:02;;;;;;;18.15;9.13;;;5.90;99.90;;;;;;4953393;28;20050;-80
2022/11/30 07:16:28;;;;;;;17.73;8.73;;;5.90;99.90;;;;;;4952654;28;20027;-80
2022/11/30 07:19:06;;;;;;;13.68;7.95;;;5.90;99.90;;;;;;4957901;28;20026;-79
2022/11/30 07:21:32;;;;;;;16.77;9.10;;;5.90;99.90;;;;;;4950663;28;20015;-81
2022/11/30 07:26:41;;;;;;;;;;;5.90;99.90;;;;;;4949915;28;20055;-78
2022/11/30 07:29:13;;;;;;;17.30;8.77;;;5.90;99.90;;;;;;4957199;28;19914;-80
2022/11/30 07:31:42;;;;;;;25.63;10.85;;;5.90;99.90;;;;;;4954940;28;20043;-78
2022/11/30 07:34:09;;;;;;;21.98;9.68;;;5.90;99.90;;;;;;4953581;28;20050;-80
2022/11/30 07:36:47;;;;;;;18.13;9.98;;;5.90;99.90;;;;;;4955738;28;20022;-79
2022/11/30 07:39:14;;;;;;;22.85;10.65;;;6.00;99.90;;;;;;4951597;28;20027;-83
2022/11/30 07:41:40;;;;;;;21.63;11.30;;;6.00;99.90;;;;;;4952348;28;20023;-80
2022/11/30 07:44:08;;;;;;;20.35;9.82;;;6.00;99.90;;;;;;4957862;28;20027;-80
2022/11/30 07:46:35;;;;;;;25.50;10.45;;;6.00;99.90;;;;;;4956667;28;20074;-81
2022/11/30 07:49:05;;;;;;;25.10;12.48;;;6.00;99.90;;;;;;4955342;28;20059;-81
2022/11/30 07:51:31;;;;;;;27.60;11.23;;;6.00;99.90;;;;;;4953110;28;20031;-83
2022/11/30 07:53:58;;;;;;;25.58;10.90;;;6.00;99.90;;;;;;4952925;28;20039;-79
2022/11/30 07:56:25;;;;;;;24.98;11.52;;;6.00;99.90;;;;;;4957264;28;20118;-81
2022/11/30 07:59:00;;;;;;;24.20;11.02;;;6.00;99.90;;;;;;4958100;28;20387;-79
2022/11/30 08:01:28;;;;;;;25.98;11.63;;;6.00;99.90;;;;;;4956728;28;20443;-79
2022/11/30 08:03:55;;;;;;;24.63;12.10;;;6.10;99.90;;;;;;4950554;28;20024;-80
2022/11/30 08:06:29;;;;;;;22.67;11.48;;;6.10;99.90;;;;;;4953792;28;20095;-80
2022/11/30 08:09:00;;;;;;;26.45;11.60;;;6.10;99.90;;;;;;4963530;28;20106;-80
2022/11/30 08:11:29;;;;;;;24.00;11.15;;;6.10;99.90;;;;;;4963134;28;20027;-80
2022/11/30 08:13:55;;;;;;;25.10;12.25;;;6.20;99.90;;;;;;4956120;28;20031;-80
2022/11/30 08:16:23;;;;;;;23.48;12.32;;;6.10;99.90;;;;;;4963464;28;20396;-80
2022/11/30 08:18:54;;;;;;;29.08;13.32;;;6.20;99.90;;;;;;4965000;28;20015;-80
2022/11/30 08:21:20;;;;;;;25.13;12.23;;;6.20;99.90;;;;;;4965052;28;20472;-79
2022/11/30 08:23:57;;;;;;;28.40;14.15;;;6.20;99.90;;;;;;4962150;28;20365;-80
2022/11/30 08:26:26;;;;;;;29.65;13.73;;;6.30;99.90;;;;;;4962478;28;20055;-80
2022/11/30 08:28:56;;;;;;;25.48;13.55;;;6.30;99.90;;;;;;4960349;28;20032;-80
2022/11/30 08:31:32;;;;;;;25.38;13.65;;;6.30;99.90;;;;;;4958291;28;20035;-80
2022/11/30 08:34:21;;;;;;;23.52;12.18;;;6.30;99.90;;;;;;4963145;28;20031;-80
2022/11/30 08:36:51;;;;;;;24.17;11.85;;;6.40;99.90;;;;;;4958544;28;20074;-80
2022/11/30 08:39:19;;;;;;;25.60;12.57;;;6.40;99.90;;;;;;4962613;28;20566;-80
2022/11/30 08:41:45;;;;;;;20.35;11.43;;;6.40;99.90;;;;;;4960151;28;20496;-79
2022/11/30 08:44:11;;;;;;;27.10;12.75;;;6.40;99.90;;;;;;4965680;28;20036;-79
2022/11/30 08:46:42;;;;;;;19.58;9.80;;;6.40;99.90;;;;;;4957174;28;20027;-80
2022/11/30 08:49:11;;;;;;;22.05;12.23;;;6.40;99.90;;;;;;4963046;28;20035;-79
2022/11/30 08:51:39;;;;;;;26.27;13.10;;;6.40;99.90;;;;;;4957651;28;20499;-80
2022/11/30 08:54:08;;;;;;;24.23;11.95;;;6.50;99.90;;;;;;4959349;28;20060;-79
2022/11/30 08:56:36;;;;;;;28.35;13.38;;;6.50;99.90;;;;;;4958659;28;20031;-79
2022/11/30 08:59:05;;;;;;;26.73;13.60;;;6.50;99.90;;;;;;4960056;28;20094;-80
2022/11/30 09:01:31;;;;;;;22.23;11.98;;;6.50;99.90;;;;;;4959342;28;20024;-79
2022/11/30 09:04:00;;;;;;;22.75;11.90;;;6.50;99.90;;;;;;4964153;28;20039;-80
2022/11/30 09:06:29;;;;;;;27.45;13.80;;;6.40;99.90;;;;;;4961766;28;20063;-80
2022/11/30 09:08:57;;;;;;;22.30;12.00;;;6.40;99.90;;;;;;4958736;28;20034;-80
2022/11/30 09:11:42;;;;;;;27.73;11.82;;;6.40;99.90;;;;;;4962136;28;20031;-80
2022/11/30 09:14:08;;;;;;;24.85;12.10;;;6.40;99.90;;;;;;4954462;28;20077;-80
2022/11/30 09:16:34;;;;;;;23.17;12.40;;;6.40;99.90;;;;;;4961205;28;20082;-80
2022/11/30 09:19:04;;;;;;;25.58;13.10;;;6.40;99.90;;;;;;4960160;28;20393;-80
2022/11/30 09:21:33;;;;;;;26.00;11.77;;;6.40;99.90;;;;;;4981386;28;20029;-80
2022/11/30 09:23:59;;;;;;;24.85;11.52;;;6.40;99.90;;;;;;4955214;28;20046;-80
2022/11/30 09:26:42;;;;;;;25.00;11.20;;;6.40;99.90;;;;;;4959113;28;20019;-79
2022/11/30 09:29:08;;;;;;;24.33;11.52;;;6.40;99.90;;;;;;4957957;28;20507;-79
2022/11/30 09:31:40;;;;;;;21.77;12.02;;;6.40;99.90;;;;;;4959217;28;20039;-80
2022/11/30 09:34:06;;;;;;;17.33;9.35;;;6.40;99.90;;;;;;4959293;28;20043;-79
2022/11/30 09:36:49;;;;;;;20.55;10.02;;;6.40;99.90;;;;;;4957163;28;20559;-80
2022/11/30 09:39:22;;;;;;;18.77;10.55;;;6.40;99.90;;;;;;4957621;28;20027;-80
2022/11/30 09:42:19;;;;;;;20.55;11.40;;;6.40;99.90;;;;;;4964368;28;20031;-80
2022/11/30 09:44:57;;;;;;;24.40;11.95;;;6.30;99.90;;;;;;4956434;28;20477;-80
2022/11/30 09:48:00;;;;;;;24.80;12.52;;;6.30;99.90;;;;;;4959970;28;20128;-80
2022/11/30 09:50:30;;;;;;;20.00;10.60;;;6.40;99.90;;;;;;4953627;28;20510;-80
2022/11/30 09:53:36;;;;;;;19.88;10.57;;;6.40;99.90;;;;;;4956578;28;20495;-80
2022/11/30 09:56:12;;;;;;;20.08;10.35;;;6.40;99.90;;;;;;4962724;28;20495;-80
2022/11/30 09:59:07;;;;;;;19.42;10.80;;;6.40;99.90;;;;;;4961108;28;20031;-79
2022/11/30 10:01:33;;;;;;;25.40;12.20;;;6.30;99.90;;;;;;4958700;28;20311;-80
2022/11/30 10:04:19;;;;;;;32.97;14.45;;;6.40;99.90;;;;;;4959539;28;20035;-81
2022/11/30 10:07:12;;;;;;;25.27;10.77;;;6.40;99.90;;;;;;4963099;28;20082;-81
2022/11/30 10:10:01;;;;;;;22.50;12.13;;;6.40;99.90;;;;;;4960950;28;20110;-80
2022/11/30 10:12:44;;;;;;;25.67;12.40;;;6.40;99.90;;;;;;4966184;23;20062;-78
2022/11/30 10:15:22;;;;;;;25.27;12.40;;;6.40;99.90;;;;;;4967195;28;20031;-78
2022/11/30 10:18:15;;;;;;;23.35;11.90;;;6.40;99.90;;;;;;4952705;28;20023;-78
2022/11/30 10:21:19;;;;;;;27.35;12.10;;;6.40;99.90;;;;;;4954104;28;20038;-77
2022/11/30 10:23:52;;;;;;;23.92;12.35;;;6.40;99.90;;;;;;4934308;29;20024;-77
2022/11/30 10:26:34;;;;;;;23.70;11.82;;;6.40;99.90;;;;;;4929676;29;20028;-77
2022/11/30 10:29:05;;;;;;;23.85;12.43;;;6.50;99.90;;;;;;4934169;29;21397;-77
2022/11/30 10:31:40;;;;;;;22.77;12.15;;;6.60;99.90;;;;;;4933899;29;20035;-77
2022/11/30 10:34:33;;;;;;;20.88;11.20;;;6.60;99.90;;;;;;4929609;29;20031;-77
2022/11/30 10:37:05;;;;;;;19.50;11.07;;;6.60;99.90;;;;;;4942321;28;20050;-77
2022/11/30 10:39:43;;;;;;;25.83;12.55;;;6.60;99.90;;;;;;4935679;29;20496;-77
2022/11/30 10:42:33;;;;;;;25.00;12.27;;;6.60;99.90;;;;;;4949362;28;20040;-78
2022/11/30 10:45:15;;;;;;;22.85;11.73;;;6.60;99.90;;;;;;4932277;29;20024;-77
2022/11/30 10:48:11;;;;;;;20.33;11.60;;;6.60;99.90;;;;;;4936061;29;20401;-77
2022/11/30 10:50:39;;;;;;;20.80;10.75;;;6.60;99.90;;;;;;4933376;29;20035;-77
2022/11/30 10:53:05;;;;;;;19.98;10.80;;;6.60;99.90;;;;;;4935525;29;20114;-78
2022/11/30 10:55:54;;;;;;;20.25;11.27;;;6.60;99.90;;;;;;4934058;29;20034;-78
2022/11/30 10:58:50;;;;;;;20.85;11.05;;;6.60;99.90;;;;;;4938396;29;20019;-78
2022/11/30 11:01:37;;;;;;;23.10;11.10;;;6.60;99.90;;;;;;4934124;29;20024;-77
2022/11/30 11:04:18;;;;;;;21.27;11.07;;;6.60;99.90;;;;;;4936150;29;20027;-77
2022/11/30 11:07:06;;;;;;;20.20;11.25;;;6.50;99.90;;;;;;4932073;29;20024;-76
2022/11/30 11:09:51;;;;;;;20.88;11.10;;;6.50;99.90;;;;;;4950939;28;20063;-76
2022/11/30 11:12:45;;;;;;;20.15;10.60;;;6.40;99.90;;;;;;4929883;29;20063;-77
2022/11/30 11:15:57;;;;;;;25.35;11.48;;;6.40;99.90;;;;;;4932089;29;20505;-77
2022/11/30 11:18:44;;;;;;;21.60;10.27;;;6.40;99.90;;;;;;4933113;29;20055;-76
2022/11/30 11:21:21;;;;;;;22.08;11.77;;;6.30;99.90;;;;;;4930331;29;20068;-77
2022/11/30 11:23:55;;;;;;;25.90;12.55;;;6.30;99.90;;;;;;4935371;29;20501;-78
2022/11/30 11:26:51;;;;;;;25.83;13.73;;;6.30;99.90;;;;;;4934783;29;20505;-79
2022/11/30 11:29:36;;;;;;;27.67;11.07;;;6.30;99.90;;;;;;4951403;28;20034;-78
2022/11/30 11:32:23;;;;;;;26.13;12.38;;;6.30;99.90;;;;;;4931423;29;20042;-77
2022/11/30 11:34:53;;;;;;;24.05;11.95;;;6.30;99.90;;;;;;4951362;28;20069;-77
2022/11/30 11:37:52;;;;;;;23.35;11.38;;;6.30;99.90;;;;;;4942539;29;20020;-78
2022/11/30 11:40:19;;;;;;;22.15;11.52;;;6.30;99.90;;;;;;4936434;29;20102;-77
2022/11/30 11:42:57;;;;;;;24.80;12.40;;;6.30;99.90;;;;;;4949261;28;20028;-77
2022/11/30 11:45:37;;;;;;;32.78;16.15;;;6.30;99.90;;;;;;4929769;29;20039;-77
2022/11/30 11:48:08;;;;;;;32.08;14.13;;;6.30;99.90;;;;;;4951367;28;20448;-77
2022/11/30 11:51:27;;;;;;;26.95;14.40;;;6.30;99.90;;;;;;4949658;28;20043;-78
2022/11/30 11:54:37;;;;;;;25.48;12.93;;;6.40;99.90;;;;;;4936601;29;20038;-78
2022/11/30 11:57:16;;;;;;;23.08;11.45;;;6.40;99.90;;;;;;4936465;29;20043;-78
2022/11/30 11:59:44;;;;;;;27.67;13.63;;;6.40;99.90;;;;;;4933097;29;20131;-78
2022/11/30 12:02:47;;;;;;;28.65;13.68;;;6.50;99.90;;;;;;4935490;29;20038;-77
2022/11/30 12:05:23;;;;;;;25.50;12.18;;;6.50;99.90;;;;;;4935003;29;20498;-77
2022/11/30 12:08:04;;;;;;;27.05;12.77;;;6.50;99.90;;;;;;4950908;28;20062;-78
2022/11/30 12:11:16;;;;;;;24.48;10.82;;;6.60;99.90;;;;;;4931693;29;20024;-77
2022/11/30 12:13:44;;;;;;;21.33;10.85;;;6.60;99.90;;;;;;4945332;28;20247;-77
2022/11/30 12:16:40;;;;;;;20.45;10.90;;;6.60;99.90;;;;;;4931853;29;20043;-77
2022/11/30 12:19:27;;;;;;;18.35;9.50;;;6.60;99.90;;;;;;4932458;29;20035;-77
2022/11/30 12:22:14;;;;;;;26.00;11.52;;;6.60;99.90;;;;;;4934825;29;20039;-77
2022/11/30 12:24:59;;;;;;;23.65;12.07;;;6.60;99.90;;;;;;4934844;29;20044;-78
2022/11/30 12:27:43;;;;;;;20.73;11.10;;;6.60;99.90;;;;;;4928703;29;20024;-78
2022/11/30 12:30:45;;;;;;;23.15;12.15;;;6.70;99.90;;;;;;4935196;29;20042;-78
2022/11/30 12:33:39;;;;;;;22.98;12.02;;;6.70;99.90;;;;;;4934999;29;20036;-76
2022/11/30 12:36:38;;;;;;;25.58;12.80;;;6.70;99.90;;;;;;4951426;28;20044;-77
2022/11/30 12:39:29;;;;;;;27.73;12.30;;;6.70;99.90;;;;;;4934127;29;20083;-78
2022/11/30 12:42:17;;;;;;;34.22;15.05;;;6.70;99.90;;;;;;4933050;29;20095;-76
2022/11/30 12:45:21;;;;;;;29.15;14.35;;;6.70;99.90;;;;;;4932734;28;20031;-78
2022/11/30 12:48:09;;;;;;;28.45;14.80;;;6.70;99.90;;;;;;4929794;28;20038;-76
2022/11/30 12:50:55;;;;;;;29.77;14.50;;;6.60;99.90;;;;;;4948796;28;20035;-76
2022/11/30 12:53:40;;;;;;;34.28;15.73;;;6.60;99.90;;;;;;4937082;28;20093;-76
2022/11/30 12:56:47;;;;;;;30.63;14.93;;;6.60;99.90;;;;;;4938758;29;20091;-77
2022/11/30 12:59:16;;;;;;;31.15;14.93;;;6.60;99.90;;;;;;4937397;29;20046;-77
2022/11/30 13:01:45;;;;;;;32.65;14.55;;;6.50;99.90;;;;;;4937743;29;20044;-77
2022/11/30 13:04:29;;;;;;;27.88;14.65;;;6.50;99.90;;;;;;4938796;29;20227;-77
2022/11/30 13:07:15;;;;;;;28.48;14.55;;;6.50;99.90;;;;;;4939792;29;20024;-77
2022/11/30 13:09:50;;;;;;;29.48;14.73;;;6.40;99.90;;;;;;4937352;29;20039;-78
2022/11/30 13:12:28;;;;;;;29.00;14.68;;;6.40;99.90;;;;;;4934583;29;20028;-78
2022/11/30 13:15:02;;;;;;;33.03;15.75;;;6.30;99.90;;;;;;4931598;29;20039;-77
2022/11/30 13:17:30;;;;;;;30.92;14.88;;;6.30;99.90;;;;;;4935708;29;20046;-77
2022/11/30 13:20:34;;;;;;;28.42;14.00;;;6.30;99.90;;;;;;4953340;28;21061;-77